Time;durP1;ratioP1;P1;durP2;ratioP2;P2;SDS_P1;SDS_P2;PMS_P1;PMS_P2;Temp;Humidity;BMP_temperature;BMP_pressure;BME280_temperature;BME280_humidity;BME280_pressure;Samples;Min_cycle;Max_cycle;Signal;HPM_P1;HPM_P2
2021/05/16 00:01:17;;;;;;;5.65;4.00;;;;;;;;;;5051253;28;20399;-69
2021/05/16 00:03:43;;;;;;;6.90;4.88;;;;;;;;;;5052553;28;20056;-69
2021/05/16 00:06:09;;;;;;;7.72;4.90;;;;;;;;;;5051949;28;20017;-69
2021/05/16 00:08:35;;;;;;;8.52;5.07;;;;;;;;;;5052561;28;20032;-68
2021/05/16 00:11:01;;;;;;;6.22;4.20;;;;;;;;;;5053011;28;20032;-69
2021/05/16 00:13:27;;;;;;;7.40;3.45;;;;;;;;;;5051848;28;20029;-69
2021/05/16 00:15:53;;;;;;;3.25;2.83;;;;;;;;;;5061741;28;20099;-69
2021/05/16 00:18:19;;;;;;;3.95;3.30;;;;;;;;;;5072091;28;20028;-69
2021/05/16 00:20:45;;;;;;;4.72;3.15;;;;;;;;;;5073011;28;20085;-69
2021/05/16 00:23:11;;;;;;;3.20;2.80;;;;;;;;;;5079913;28;20016;-69
2021/05/16 00:25:37;;;;;;;2.97;2.70;;;;;;;;;;5093539;28;20020;-69
2021/05/16 00:28:04;;;;;;;2.67;2.47;;;;;;;;;;5093695;28;20035;-68
2021/05/16 00:30:30;;;;;;;2.60;2.40;;;;;;;;;;5091783;28;20016;-69
2021/05/16 00:32:56;;;;;;;3.10;2.42;;;;;;;;;;5091979;28;20024;-69
2021/05/16 00:35:23;;;;;;;3.75;2.60;;;;;;;;;;5075224;28;20422;-68
2021/05/16 00:37:49;;;;;;;2.80;2.10;;;;;;;;;;5092782;28;20020;-69
2021/05/16 00:40:15;;;;;;;2.95;2.75;;;;;;;;;;5093011;28;20527;-68
2021/05/16 00:42:42;;;;;;;2.70;2.50;;;;;;;;;;5092838;28;20024;-68
2021/05/16 00:45:15;;;;;;;3.47;2.42;;;;;;;;;;5092368;28;20024;-68
2021/05/16 00:47:45;;;;;;;3.45;2.67;;;;;;;;;;5093330;28;20069;-68
2021/05/16 00:50:11;;;;;;;2.58;2.38;;;;;;;;;;5092457;28;20028;-68
2021/05/16 00:52:40;;;;;;;2.92;2.33;;;;;;;;;;5092477;28;20027;-69
2021/05/16 00:55:07;;;;;;;4.25;2.70;;;;;;;;;;5084212;28;20040;-69
2021/05/16 00:57:33;;;;;;;2.55;2.35;;;;;;;;;;5051567;28;20075;-68
2021/05/16 00:59:59;;;;;;;2.80;2.60;;;;;;;;;;5051952;28;20047;-68
2021/05/16 01:02:25;;;;;;;2.85;2.65;;;;;;;;;;5052757;28;20842;-68
2021/05/16 01:04:51;;;;;;;3.28;2.67;;;;;;;;;;5052415;28;20079;-68
2021/05/16 01:07:18;;;;;;;2.58;2.38;;;;;;;;;;5051838;28;20526;-69
2021/05/16 01:09:44;;;;;;;2.63;2.30;;;;;;;;;;5051948;28;20039;-68
2021/05/16 01:12:10;;;;;;;2.83;2.38;;;;;;;;;;5052376;28;20032;-68
2021/05/16 01:14:40;;;;;;;2.70;2.50;;;;;;;;;;5051314;28;20036;-69
2021/05/16 01:17:07;;;;;;;3.10;2.90;;;;;;;;;;5055568;28;20370;-68
2021/05/16 01:19:33;;;;;;;3.10;2.80;;;;;;;;;;5071919;28;20029;-69
2021/05/16 01:21:59;;;;;;;3.22;2.78;;;;;;;;;;5071613;28;20457;-68
2021/05/16 01:24:27;;;;;;;4.97;2.70;;;;;;;;;;5089441;28;20027;-69
2021/05/16 01:26:54;;;;;;;2.92;2.63;;;;;;;;;;5092246;28;20023;-69
2021/05/16 01:29:20;;;;;;;3.08;2.88;;;;;;;;;;5091499;28;20099;-69
2021/05/16 01:31:46;;;;;;;4.60;2.70;;;;;;;;;;5092254;28;20103;-68
2021/05/16 01:34:12;;;;;;;3.97;3.10;;;;;;;;;;5091913;28;20050;-69
2021/05/16 01:36:39;;;;;;;4.28;3.28;;;;;;;;;;5091561;28;20024;-68
2021/05/16 01:39:07;;;;;;;3.15;2.88;;;;;;;;;;5091980;28;20055;-69
2021/05/16 01:41:33;;;;;;;5.07;3.63;;;;;;;;;;5092204;28;20028;-69
2021/05/16 01:43:59;;;;;;;6.53;3.70;;;;;;;;;;5091426;28;20102;-68
2021/05/16 01:46:25;;;;;;;6.07;4.00;;;;;;;;;;5091634;28;20019;-69
2021/05/16 01:48:51;;;;;;;6.95;4.50;;;;;;;;;;5091674;28;20074;-69
2021/05/16 01:51:18;;;;;;;6.20;4.40;;;;;;;;;;5090499;28;20028;-68
2021/05/16 01:53:44;;;;;;;6.18;4.38;;;;;;;;;;5091240;28;20031;-69
2021/05/16 01:56:11;;;;;;;4.30;3.42;;;;;;;;;;5090145;28;20489;-69
2021/05/16 01:58:37;;;;;;;3.45;3.15;;;;;;;;;;5090474;28;20028;-68
2021/05/16 02:01:04;;;;;;;3.85;3.15;;;;;;;;;;5090241;28;20052;-68
2021/05/16 02:03:31;;;;;;;3.58;2.90;;;;;;;;;;5090063;28;20020;-68
2021/05/16 02:05:57;;;;;;;3.63;2.78;;;;;;;;;;5091652;28;20028;-69
2021/05/16 02:08:24;;;;;;;2.97;2.78;;;;;;;;;;5091048;28;20058;-68
2021/05/16 02:10:50;;;;;;;3.20;2.90;;;;;;;;;;5091472;28;20119;-68
2021/05/16 02:13:16;;;;;;;3.17;2.88;;;;;;;;;;5091546;28;20024;-68
2021/05/16 02:15:42;;;;;;;2.92;2.72;;;;;;;;;;5075721;28;20029;-69
2021/05/16 02:18:08;;;;;;;4.05;3.30;;;;;;;;;;5052816;28;20021;-69
2021/05/16 02:20:35;;;;;;;3.38;3.10;;;;;;;;;;5050729;28;20028;-69
2021/05/16 02:23:01;;;;;;;4.43;2.88;;;;;;;;;;5062019;28;20028;-68
2021/05/16 02:25:27;;;;;;;3.35;3.05;;;;;;;;;;5090960;28;20145;-68
2021/05/16 02:27:53;;;;;;;3.17;2.78;;;;;;;;;;5091376;28;20795;-69
2021/05/16 02:30:20;;;;;;;5.00;3.42;;;;;;;;;;5090146;28;20126;-69
2021/05/16 02:32:46;;;;;;;7.07;4.03;;;;;;;;;;5090955;28;20092;-69
2021/05/16 02:35:13;;;;;;;6.30;4.00;;;;;;;;;;5073909;28;20028;-69
2021/05/16 02:37:39;;;;;;;5.28;3.63;;;;;;;;;;5069117;28;20468;-68
2021/05/16 02:40:05;;;;;;;6.45;3.58;;;;;;;;;;5070971;28;20027;-69
2021/05/16 02:42:31;;;;;;;6.82;4.53;;;;;;;;;;5070954;28;20028;-68
2021/05/16 02:44:57;;;;;;;5.75;3.53;;;;;;;;;;5070290;28;20443;-68
2021/05/16 02:47:23;;;;;;;3.47;3.17;;;;;;;;;;5070842;28;20071;-69
2021/05/16 02:49:49;;;;;;;6.28;3.72;;;;;;;;;;5070828;28;20021;-69
2021/05/16 02:52:16;;;;;;;6.95;4.20;;;;;;;;;;5070299;28;20039;-68
2021/05/16 02:54:43;;;;;;;5.45;4.40;;;;;;;;;;5070772;28;20378;-69
2021/05/16 02:57:09;;;;;;;4.68;4.18;;;;;;;;;;5059964;28;20119;-68
2021/05/16 02:59:35;;;;;;;4.43;3.97;;;;;;;;;;5050206;28;20025;-69
2021/05/16 03:02:01;;;;;;;5.93;4.28;;;;;;;;;;5050651;28;20045;-68
2021/05/16 03:04:27;;;;;;;6.40;3.85;;;;;;;;;;5050366;28;20021;-68
2021/05/16 03:06:53;;;;;;;6.78;4.30;;;;;;;;;;5050517;28;20136;-68
2021/05/16 03:09:19;;;;;;;6.03;4.30;;;;;;;;;;5050619;28;20017;-68
2021/05/16 03:11:45;;;;;;;5.85;4.45;;;;;;;;;;5051782;28;20112;-68
2021/05/16 03:14:11;;;;;;;6.68;4.40;;;;;;;;;;5053973;28;20029;-68
2021/05/16 03:16:37;;;;;;;4.65;3.72;;;;;;;;;;5054541;28;20479;-67
2021/05/16 03:19:04;;;;;;;5.38;4.05;;;;;;;;;;5073587;28;20526;-68
2021/05/16 03:21:30;;;;;;;4.40;4.00;;;;;;;;;;5072723;28;20099;-68
2021/05/16 03:23:56;;;;;;;4.90;4.35;;;;;;;;;;5088253;28;20035;-68
2021/05/16 03:26:23;;;;;;;6.95;4.72;;;;;;;;;;5094419;28;20039;-68
2021/05/16 03:28:49;;;;;;;5.90;4.10;;;;;;;;;;5094063;28;20098;-68
2021/05/16 03:31:15;;;;;;;4.85;4.03;;;;;;;;;;5094337;28;20028;-68
2021/05/16 03:33:41;;;;;;;4.13;3.72;;;;;;;;;;5094092;28;20555;-68
2021/05/16 03:36:07;;;;;;;7.72;4.53;;;;;;;;;;5094026;28;20825;-68
2021/05/16 03:38:33;;;;;;;7.00;5.20;;;;;;;;;;5094208;28;20469;-68
2021/05/16 03:40:59;;;;;;;5.90;4.45;;;;;;;;;;5094266;28;20028;-68
2021/05/16 03:43:27;;;;;;;5.22;4.22;;;;;;;;;;5093529;28;20112;-68
2021/05/16 03:45:53;;;;;;;13.85;8.63;;;;;;;;;;5094149;28;20039;-68
2021/05/16 03:48:19;;;;;;;9.88;6.90;;;;;;;;;;5094136;28;20054;-68
2021/05/16 03:50:45;;;;;;;8.52;5.45;;;;;;;;;;5092397;28;20021;-68
2021/05/16 03:53:11;;;;;;;9.15;5.75;;;;;;;;;;5094240;28;20447;-68
2021/05/16 03:55:37;;;;;;;6.90;5.35;;;;;;;;;;5093838;28;20023;-68
2021/05/16 03:58:03;;;;;;;14.82;10.15;;;;;;;;;;5093507;28;20032;-68
2021/05/16 04:00:29;;;;;;;10.80;7.63;;;;;;;;;;5092613;28;20122;-69
2021/05/16 04:02:55;;;;;;;9.73;6.57;;;;;;;;;;5092648;28;20832;-68
2021/05/16 04:05:21;;;;;;;6.93;5.93;;;;;;;;;;5093042;28;20405;-68
2021/05/16 04:07:49;;;;;;;8.02;5.65;;;;;;;;;;5094021;28;20501;-68
2021/05/16 04:10:15;;;;;;;8.05;5.40;;;;;;;;;;5093382;28;20027;-68
2021/05/16 04:12:41;;;;;;;6.75;4.72;;;;;;;;;;5091995;28;20028;-68
2021/05/16 04:15:07;;;;;;;4.95;3.70;;;;;;;;;;5093647;28;20039;-68
2021/05/16 04:17:33;;;;;;;4.20;3.80;;;;;;;;;;5086251;28;20115;-68
2021/05/16 04:20:00;;;;;;;4.75;4.03;;;;;;;;;;5072530;28;20482;-68
2021/05/16 04:22:26;;;;;;;5.07;3.95;;;;;;;;;;5074738;28;20409;-68
2021/05/16 04:24:54;;;;;;;5.22;4.18;;;;;;;;;;5092732;28;20728;-68
2021/05/16 04:27:21;;;;;;;4.93;3.80;;;;;;;;;;5092874;28;20020;-68
2021/05/16 04:29:47;;;;;;;4.53;4.13;;;;;;;;;;5091842;28;20035;-68
2021/05/16 04:32:13;;;;;;;5.13;4.05;;;;;;;;;;5093337;28;20028;-68
2021/05/16 04:34:39;;;;;;;4.38;3.95;;;;;;;;;;5071063;28;20056;-68
2021/05/16 04:37:05;;;;;;;5.70;3.97;;;;;;;;;;5052362;28;20444;-68
2021/05/16 04:39:31;;;;;;;4.82;3.90;;;;;;;;;;5052636;28;20025;-68
2021/05/16 04:41:57;;;;;;;5.07;3.60;;;;;;;;;;5051632;28;20101;-68
2021/05/16 04:44:23;;;;;;;4.10;3.70;;;;;;;;;;5052054;28;20052;-68
2021/05/16 04:46:49;;;;;;;5.57;3.60;;;;;;;;;;5052684;28;20021;-69
2021/05/16 04:49:15;;;;;;;4.88;3.30;;;;;;;;;;5051673;28;20056;-68
2021/05/16 04:51:41;;;;;;;3.90;3.45;;;;;;;;;;5052196;28;20067;-68
2021/05/16 04:54:07;;;;;;;4.30;3.90;;;;;;;;;;5068048;28;20059;-68
2021/05/16 04:56:33;;;;;;;7.07;3.78;;;;;;;;;;5071997;28;20106;-69
2021/05/16 04:59:01;;;;;;;4.43;3.80;;;;;;;;;;5054356;28;20029;-68
2021/05/16 05:01:27;;;;;;;4.65;3.95;;;;;;;;;;5052493;28;20049;-68
2021/05/16 05:03:54;;;;;;;5.57;3.45;;;;;;;;;;5067499;28;20064;-68
2021/05/16 05:06:21;;;;;;;5.55;4.10;;;;;;;;;;5052212;28;20075;-68
2021/05/16 05:08:47;;;;;;;4.00;3.60;;;;;;;;;;5052468;28;20024;-68
2021/05/16 05:11:13;;;;;;;6.53;4.20;;;;;;;;;;5051994;28;20025;-68
2021/05/16 05:13:39;;;;;;;4.55;3.55;;;;;;;;;;5052039;28;20028;-68
2021/05/16 05:16:06;;;;;;;3.50;3.20;;;;;;;;;;5052224;28;20116;-68
2021/05/16 05:18:32;;;;;;;5.25;3.30;;;;;;;;;;5067282;28;20060;-68
2021/05/16 05:20:59;;;;;;;4.97;3.33;;;;;;;;;;5070682;28;20161;-69
2021/05/16 05:23:27;;;;;;;4.15;3.45;;;;;;;;;;5082133;28;20099;-68
2021/05/16 05:25:54;;;;;;;4.65;4.10;;;;;;;;;;5092289;28;20020;-68
2021/05/16 05:28:20;;;;;;;9.43;6.23;;;;;;;;;;5091860;28;20073;-68
2021/05/16 05:30:47;;;;;;;12.10;7.88;;;;;;;;;;5092219;28;20031;-68
2021/05/16 05:33:13;;;;;;;8.38;5.80;;;;;;;;;;5092187;28;20103;-68
2021/05/16 05:35:39;;;;;;;13.65;8.57;;;;;;;;;;5091318;28;20470;-68
2021/05/16 05:38:05;;;;;;;13.38;8.55;;;;;;;;;;5092040;28;20024;-68
2021/05/16 05:40:31;;;;;;;10.55;6.95;;;;;;;;;;5091957;28;20105;-68
2021/05/16 05:42:57;;;;;;;7.65;4.90;;;;;;;;;;5090063;28;20047;-68
2021/05/16 05:45:23;;;;;;;5.13;4.10;;;;;;;;;;5086549;28;20121;-68
2021/05/16 05:47:49;;;;;;;6.53;3.83;;;;;;;;;;5051197;28;20059;-68
2021/05/16 05:50:15;;;;;;;6.45;4.03;;;;;;;;;;5050750;28;20032;-68
2021/05/16 05:52:41;;;;;;;9.68;5.25;;;;;;;;;;5051189;28;20040;-68
2021/05/16 05:55:08;;;;;;;7.28;5.28;;;;;;;;;;5050830;28;20033;-68
2021/05/16 05:57:34;;;;;;;8.35;5.20;;;;;;;;;;5050539;28;20043;-68
2021/05/16 06:00:00;;;;;;;6.28;4.38;;;;;;;;;;5050906;28;20062;-68
2021/05/16 06:02:26;;;;;;;7.18;4.13;;;;;;;;;;5056279;28;20040;-68
2021/05/16 06:04:54;;;;;;;5.90;4.15;;;;;;;;;;5070665;28;20910;-68
2021/05/16 06:07:20;;;;;;;5.68;4.13;;;;;;;;;;5071421;28;20025;-68
2021/05/16 06:09:46;;;;;;;5.45;4.20;;;;;;;;;;5070980;28;20382;-68
2021/05/16 06:12:14;;;;;;;5.32;3.70;;;;;;;;;;5070783;28;20141;-68
2021/05/16 06:14:40;;;;;;;12.82;4.30;;;;;;;;;;5071034;28;20024;-68
2021/05/16 06:17:06;;;;;;;11.15;4.72;;;;;;;;;;5070979;28;20028;-68
2021/05/16 06:19:32;;;;;;;17.02;6.03;;;;;;;;;;5070773;28;20028;-68
2021/05/16 06:21:58;;;;;;;9.18;5.00;;;;;;;;;;5070925;28;20513;-68
2021/05/16 06:24:24;;;;;;;8.27;6.10;;;;;;;;;;5089105;28;20026;-68
2021/05/16 06:26:51;;;;;;;15.27;7.45;;;;;;;;;;5090804;28;20127;-68
2021/05/16 06:29:17;;;;;;;24.45;8.48;;;;;;;;;;5089807;28;20419;-68
2021/05/16 06:31:43;;;;;;;13.32;6.80;;;;;;;;;;5091352;28;20024;-68
2021/05/16 06:34:09;;;;;;;10.88;6.90;;;;;;;;;;5090477;28;20032;-68
2021/05/16 06:36:35;;;;;;;12.00;6.95;;;;;;;;;;5089950;28;20481;-68
2021/05/16 06:39:01;;;;;;;9.85;6.70;;;;;;;;;;5090014;28;20117;-68
2021/05/16 06:41:28;;;;;;;8.48;5.93;;;;;;;;;;5089556;28;20031;-68
2021/05/16 06:43:54;;;;;;;23.48;11.05;;;;;;;;;;5091057;28;20032;-68
2021/05/16 06:46:20;;;;;;;7.57;5.25;;;;;;;;;;5090523;28;20046;-68
2021/05/16 06:48:46;;;;;;;12.52;5.63;;;;;;;;;;5094948;28;20020;-68
2021/05/16 06:51:12;;;;;;;6.88;5.00;;;;;;;;;;5094147;28;20478;-68
2021/05/16 06:53:39;;;;;;;6.82;4.55;;;;;;;;;;5094186;28;20043;-68
2021/05/16 06:56:07;;;;;;;8.80;5.28;;;;;;;;;;5093738;28;20077;-68
2021/05/16 06:58:34;;;;;;;7.57;5.05;;;;;;;;;;5074337;28;20028;-68
2021/05/16 07:01:00;;;;;;;6.35;4.22;;;;;;;;;;5070107;28;20059;-68
2021/05/16 07:03:26;;;;;;;9.10;5.47;;;;;;;;;;5054407;28;20918;-68
2021/05/16 07:05:52;;;;;;;7.60;5.00;;;;;;;;;;5054852;28;20025;-68
2021/05/16 07:08:18;;;;;;;7.93;4.95;;;;;;;;;;5054567;28;20025;-68
2021/05/16 07:10:44;;;;;;;6.55;4.68;;;;;;;;;;5054189;28;20049;-68
2021/05/16 07:13:10;;;;;;;9.65;4.78;;;;;;;;;;5054603;28;20498;-68
2021/05/16 07:15:36;;;;;;;8.02;4.30;;;;;;;;;;5054228;28;20043;-68
2021/05/16 07:18:02;;;;;;;11.15;4.30;;;;;;;;;;5065146;28;20032;-68
2021/05/16 07:20:28;;;;;;;4.65;3.67;;;;;;;;;;5074088;28;20047;-68
2021/05/16 07:22:54;;;;;;;7.53;4.47;;;;;;;;;;5080400;28;20039;-68
2021/05/16 07:25:20;;;;;;;5.35;3.15;;;;;;;;;;5093745;28;20542;-68
2021/05/16 07:27:47;;;;;;;4.30;3.13;;;;;;;;;;5094720;28;20797;-68
2021/05/16 07:30:13;;;;;;;3.63;2.85;;;;;;;;;;5093370;28;20055;-68
2021/05/16 07:32:39;;;;;;;2.60;2.40;;;;;;;;;;5094005;28;20536;-68
2021/05/16 07:35:06;;;;;;;3.25;2.50;;;;;;;;;;5094293;28;20059;-68
2021/05/16 07:37:32;;;;;;;2.50;2.30;;;;;;;;;;5093142;28;20031;-68
2021/05/16 07:39:58;;;;;;;4.03;2.00;;;;;;;;;;5093631;28;20031;-68
2021/05/16 07:42:24;;;;;;;1.70;1.60;;;;;;;;;;5093236;28;20058;-68
2021/05/16 07:44:51;;;;;;;2.50;1.50;;;;;;;;;;5094118;28;20103;-68
2021/05/16 07:47:17;;;;;;;3.58;1.60;;;;;;;;;;5093581;28;20028;-68
2021/05/16 07:49:45;;;;;;;6.97;4.10;;;;;;;;;;5094026;28;20063;-68
2021/05/16 07:52:11;;;;;;;5.38;2.60;;;;;;;;;;5094424;28;20019;-68
2021/05/16 07:54:37;;;;;;;2.75;1.70;;;;;;;;;;5093279;28;20107;-68
2021/05/16 07:57:03;;;;;;;3.15;1.88;;;;;;;;;;5093880;28;20020;-68
2021/05/16 07:59:30;;;;;;;2.65;2.00;;;;;;;;;;5091523;28;20035;-69
2021/05/16 08:01:56;;;;;;;4.63;3.20;;;;;;;;;;5092058;28;20032;-69
2021/05/16 08:04:22;;;;;;;5.70;3.38;;;;;;;;;;5052775;28;20029;-69
2021/05/16 08:06:48;;;;;;;3.25;2.88;;;;;;;;;;5052515;28;20125;-69
2021/05/16 08:09:14;;;;;;;1.90;1.80;;;;;;;;;;5052154;28;20032;-69
2021/05/16 08:11:40;;;;;;;2.15;1.95;;;;;;;;;;5053238;28;20454;-69
2021/05/16 08:14:06;;;;;;;2.53;2.33;;;;;;;;;;5053026;28;20374;-69
2021/05/16 08:16:34;;;;;;;8.60;3.83;;;;;;;;;;5052445;28;20025;-69
2021/05/16 08:19:00;;;;;;;3.50;3.20;;;;;;;;;;5070581;28;20461;-69
2021/05/16 08:21:26;;;;;;;3.65;2.53;;;;;;;;;;5069514;28;20025;-69
2021/05/16 08:23:53;;;;;;;3.30;2.33;;;;;;;;;;5087359;28;20464;-69
2021/05/16 08:26:19;;;;;;;5.72;3.13;;;;;;;;;;5091735;28;20050;-69
2021/05/16 08:28:45;;;;;;;6.40;4.20;;;;;;;;;;5093617;28;20031;-69
2021/05/16 08:31:11;;;;;;;5.75;4.30;;;;;;;;;;5093009;28;20016;-69
2021/05/16 08:33:37;;;;;;;4.30;3.40;;;;;;;;;;5092955;28;20027;-69
2021/05/16 08:36:03;;;;;;;7.70;4.50;;;;;;;;;;5093085;28;20032;-69
2021/05/16 08:38:30;;;;;;;6.55;3.90;;;;;;;;;;5092572;28;20024;-69
2021/05/16 08:40:56;;;;;;;4.35;2.90;;;;;;;;;;5093146;28;20103;-69
2021/05/16 08:43:22;;;;;;;10.88;4.60;;;;;;;;;;5093202;28;20466;-69
2021/05/16 08:45:48;;;;;;;2.45;1.67;;;;;;;;;;5092735;28;20545;-69
2021/05/16 08:48:14;;;;;;;9.13;3.80;;;;;;;;;;5092693;28;20462;-69
2021/05/16 08:50:40;;;;;;;8.07;6.18;;;;;;;;;;5093008;28;20016;-69
2021/05/16 08:53:07;;;;;;;4.45;2.45;;;;;;;;;;5093091;28;20048;-69
2021/05/16 08:55:36;;;;;;;6.00;4.28;;;;;;;;;;5091055;28;20091;-69
2021/05/16 08:58:02;;;;;;;14.35;8.82;;;;;;;;;;5091909;28;20054;-69
2021/05/16 09:00:28;;;;;;;6.15;4.07;;;;;;;;;;5057675;28;20069;-69
2021/05/16 09:03:01;;;;;;;2.25;2.10;;;;;;;;;;5052356;28;20024;-69
2021/05/16 09:05:28;;;;;;;3.50;2.70;;;;;;;;;;5052261;28;20032;-69
2021/05/16 09:08:01;;;;;;;6.32;3.90;;;;;;;;;;5052676;28;20017;-69
2021/05/16 09:10:27;;;;;;;3.72;2.83;;;;;;;;;;5051492;28;20028;-69
2021/05/16 09:12:55;;;;;;;4.15;2.80;;;;;;;;;;5052505;28;20510;-69
2021/05/16 09:15:21;;;;;;;2.60;2.40;;;;;;;;;;5066896;28;20037;-69
2021/05/16 09:17:52;;;;;;;2.03;1.92;;;;;;;;;;5076321;28;20086;-69
2021/05/16 09:20:23;;;;;;;2.13;1.92;;;;;;;;;;5072183;28;20017;-69
2021/05/16 09:22:50;;;;;;;9.52;5.85;;;;;;;;;;5076531;28;20028;-69
2021/05/16 09:25:16;;;;;;;9.40;4.93;;;;;;;;;;5090698;28;20024;-69
2021/05/16 09:27:43;;;;;;;6.50;4.40;;;;;;;;;;5092635;28;20098;-69
2021/05/16 09:30:18;;;;;;;13.00;6.60;;;;;;;;;;5091914;28;20028;-69
2021/05/16 09:32:52;;;;;;;15.68;10.20;;;;;;;;;;5092105;28;20032;-69
2021/05/16 09:35:18;;;;;;;6.30;3.53;;;;;;;;;;5083112;28;20024;-68
2021/05/16 09:37:57;;;;;;;4.97;3.15;;;;;;;;;;5071476;28;20020;-69
2021/05/16 09:40:23;;;;;;;13.55;7.07;;;;;;;;;;5070843;28;20032;-69
2021/05/16 09:43:05;;;;;;;14.05;8.50;;;;;;;;;;5070447;28;20024;-69
2021/05/16 09:45:50;;;;;;;4.72;3.42;;;;;;;;;;5070860;28;20029;-68
2021/05/16 09:48:19;;;;;;;6.05;4.00;;;;;;;;;;5071245;28;20028;-68
2021/05/16 09:50:45;;;;;;;6.10;3.85;;;;;;;;;;5071547;28;20020;-69
2021/05/16 09:53:11;;;;;;;6.57;4.70;;;;;;;;;;5069839;28;20033;-68
2021/05/16 09:55:37;;;;;;;6.18;3.38;;;;;;;;;;5071352;28;20020;-68
2021/05/16 09:58:04;;;;;;;5.35;3.45;;;;;;;;;;5071486;28;20394;-69
2021/05/16 10:00:30;;;;;;;11.10;7.65;;;;;;;;;;5070728;28;20033;-68
2021/05/16 10:02:56;;;;;;;14.82;11.25;;;;;;;;;;5070860;28;20024;-69
2021/05/16 10:05:22;;;;;;;6.88;5.05;;;;;;;;;;5071370;28;20021;-69
2021/05/16 10:07:48;;;;;;;4.55;3.97;;;;;;;;;;5071014;28;20048;-68
2021/05/16 10:10:15;;;;;;;7.43;5.00;;;;;;;;;;5070062;28;20037;-69
2021/05/16 10:12:41;;;;;;;27.70;17.95;;;;;;;;;;5071317;28;20039;-69
2021/05/16 10:15:07;;;;;;;12.13;7.28;;;;;;;;;;5069503;28;20058;-68
2021/05/16 10:17:35;;;;;;;23.80;14.68;;;;;;;;;;5070865;28;20056;-68
2021/05/16 10:20:04;;;;;;;16.13;8.75;;;;;;;;;;5070879;28;20032;-68
2021/05/16 10:22:30;;;;;;;;;;;;;;;;;;5067708;28;20123;-69
2021/05/16 10:24:56;;;;;;;10.43;5.38;;;;;;;;;;5057881;28;19996;-68
2021/05/16 10:27:26;;;;;;;9.32;6.07;;;;;;;;;;5050290;28;20029;-69
2021/05/16 10:29:59;;;;;;;5.45;4.53;;;;;;;;;;5049112;28;20029;-68
2021/05/16 10:32:26;;;;;;;4.32;3.78;;;;;;;;;;5049717;28;20052;-69
2021/05/16 10:34:56;;;;;;;4.55;2.83;;;;;;;;;;5049371;28;20578;-69
2021/05/16 10:37:35;;;;;;;5.50;3.88;;;;;;;;;;5049099;28;20029;-69
2021/05/16 10:40:01;;;;;;;5.97;3.88;;;;;;;;;;5059857;28;20058;-69
2021/05/16 10:42:34;;;;;;;9.05;5.60;;;;;;;;;;5070964;28;20039;-69
2021/05/16 10:45:02;;;;;;;6.18;3.88;;;;;;;;;;5070562;28;20035;-69
2021/05/16 10:47:44;;;;;;;34.05;19.08;;;;;;;;;;5070952;28;20081;-69
2021/05/16 10:50:14;;;;;;;12.70;6.55;;;;;;;;;;5070725;28;20043;-69
2021/05/16 10:52:40;;;;;;;13.73;6.32;;;;;;;;;;5069455;28;20150;-69
2021/05/16 10:55:07;;;;;;;16.05;8.30;;;;;;;;;;5069111;28;20039;-69
2021/05/16 10:57:37;;;;;;;10.65;6.32;;;;;;;;;;5070976;28;20032;-69
2021/05/16 11:00:21;;;;;;;5.38;3.90;;;;;;;;;;5060918;28;20048;-69
2021/05/16 11:03:07;;;;;;;5.53;3.15;;;;;;;;;;5050544;28;20036;-69
2021/05/16 11:05:44;;;;;;;2.08;1.75;;;;;;;;;;5050694;28;20059;-69
2021/05/16 11:08:10;;;;;;;37.35;21.70;;;;;;;;;;5050327;28;20021;-69
2021/05/16 11:10:40;;;;;;;6.10;3.60;;;;;;;;;;5065694;28;20068;-69
2021/05/16 11:13:07;;;;;;;3.30;2.80;;;;;;;;;;5050930;28;20459;-69
2021/05/16 11:15:33;;;;;;;4.97;3.35;;;;;;;;;;5049790;28;20520;-69
2021/05/16 11:17:59;;;;;;;4.22;2.90;;;;;;;;;;5061208;28;20051;-69
2021/05/16 11:20:25;;;;;;;9.70;5.20;;;;;;;;;;5070486;28;20024;-69
2021/05/16 11:22:51;;;;;;;38.25;16.73;;;;;;;;;;5074416;28;20057;-69
2021/05/16 11:25:24;;;;;;;2.80;2.40;;;;;;;;;;5089356;28;20020;-69
2021/05/16 11:27:50;;;;;;;19.42;11.52;;;;;;;;;;5090776;28;20043;-69
2021/05/16 11:30:16;;;;;;;9.60;5.25;;;;;;;;;;5090008;28;20023;-69
2021/05/16 11:32:42;;;;;;;3.03;2.60;;;;;;;;;;5091600;28;20454;-69
2021/05/16 11:35:08;;;;;;;22.65;16.70;;;;;;;;;;5094424;28;20031;-69
2021/05/16 11:37:35;;;;;;;6.88;4.30;;;;;;;;;;5092877;28;20028;-69
2021/05/16 11:40:14;;;;;;;4.88;2.70;;;;;;;;;;5093078;28;20024;-69
2021/05/16 11:42:42;;;;;;;18.13;8.98;;;;;;;;;;5094388;28;20020;-69
2021/05/16 11:45:08;;;;;;;14.90;6.35;;;;;;;;;;5093457;28;20031;-69
2021/05/16 11:47:35;;;;;;;18.50;8.95;;;;;;;;;;5093084;28;20046;-69
2021/05/16 11:50:01;;;;;;;16.67;8.65;;;;;;;;;;5094152;28;20027;-69
2021/05/16 11:52:27;;;;;;;11.30;5.60;;;;;;;;;;5093670;28;20048;-69
2021/05/16 11:54:53;;;;;;;10.30;4.63;;;;;;;;;;5093958;28;20024;-69
2021/05/16 11:57:21;;;;;;;18.35;11.65;;;;;;;;;;5092696;28;20031;-68
2021/05/16 11:59:47;;;;;;;6.97;3.53;;;;;;;;;;5093289;28;20024;-69
2021/05/16 12:02:13;;;;;;;8.90;4.82;;;;;;;;;;5093798;28;20044;-68
2021/05/16 12:04:39;;;;;;;8.15;5.55;;;;;;;;;;5083173;28;20045;-69
2021/05/16 12:07:05;;;;;;;21.77;19.48;;;;;;;;;;5073003;28;20018;-69
2021/05/16 12:09:37;;;;;;;5.65;3.58;;;;;;;;;;5072246;28;20532;-69
2021/05/16 12:12:03;;;;;;;5.90;3.50;;;;;;;;;;5073716;28;20520;-68
2021/05/16 12:14:32;;;;;;;3.50;3.20;;;;;;;;;;5072751;28;20063;-68
2021/05/16 12:16:58;;;;;;;4.18;3.47;;;;;;;;;;5073531;28;20025;-68
2021/05/16 12:19:28;;;;;;;4.43;2.85;;;;;;;;;;5073195;28;20035;-68
2021/05/16 12:21:58;;;;;;;4.70;3.92;;;;;;;;;;5072672;28;20048;-68
2021/05/16 12:24:25;;;;;;;6.32;3.60;;;;;;;;;;5090697;28;20055;-68
2021/05/16 12:26:51;;;;;;;20.98;12.60;;;;;;;;;;5092572;28;20032;-68
2021/05/16 12:29:18;;;;;;;15.95;8.50;;;;;;;;;;5092992;28;20024;-68
2021/05/16 12:31:44;;;;;;;5.40;3.20;;;;;;;;;;5092675;28;20026;-68
2021/05/16 12:34:11;;;;;;;13.60;6.53;;;;;;;;;;5091684;28;20032;-68
2021/05/16 12:36:56;;;;;;;20.63;10.07;;;;;;;;;;5092819;28;20107;-68
2021/05/16 12:39:39;;;;;;;10.88;6.30;;;;;;;;;;5087207;28;20426;-67
2021/05/16 12:42:24;;;;;;;10.40;5.88;;;;;;;;;;5051870;28;20017;-68
2021/05/16 12:44:50;;;;;;;4.10;3.30;;;;;;;;;;5051269;28;20039;-68
2021/05/16 12:47:23;;;;;;;4.20;3.80;;;;;;;;;;5052034;28;20060;-68
2021/05/16 12:49:49;;;;;;;6.95;5.07;;;;;;;;;;5052366;28;20540;-68
2021/05/16 12:52:24;;;;;;;4.80;3.22;;;;;;;;;;5052159;28;20063;-68
2021/05/16 12:54:50;;;;;;;5.43;4.40;;;;;;;;;;5051890;28;20060;-68
2021/05/16 12:57:25;;;;;;;11.45;6.60;;;;;;;;;;5051157;28;20104;-68
2021/05/16 12:59:51;;;;;;;4.72;3.28;;;;;;;;;;5052376;28;20071;-68
2021/05/16 13:02:17;;;;;;;8.70;5.10;;;;;;;;;;5063464;28;20064;-68
2021/05/16 13:04:46;;;;;;;4.20;3.35;;;;;;;;;;5072131;28;20020;-68
2021/05/16 13:07:12;;;;;;;3.20;2.90;;;;;;;;;;5072098;28;20470;-69
2021/05/16 13:09:38;;;;;;;4.85;2.83;;;;;;;;;;5072336;28;20020;-69
2021/05/16 13:12:05;;;;;;;3.33;2.70;;;;;;;;;;5072387;28;20025;-69
2021/05/16 13:14:34;;;;;;;3.20;2.67;;;;;;;;;;5071831;28;20043;-68
2021/05/16 13:17:10;;;;;;;4.05;3.20;;;;;;;;;;5072157;28;20032;-69
2021/05/16 13:19:39;;;;;;;6.47;4.55;;;;;;;;;;5071329;28;20028;-69
2021/05/16 13:22:24;;;;;;;4.50;3.50;;;;;;;;;;5054336;28;20028;-69
2021/05/16 13:24:50;;;;;;;6.40;4.00;;;;;;;;;;5051973;28;20025;-69
2021/05/16 13:27:16;;;;;;;3.42;3.00;;;;;;;;;;5051716;28;20041;-69
2021/05/16 13:29:44;;;;;;;6.93;4.03;;;;;;;;;;5051966;28;20056;-69
2021/05/16 13:32:14;;;;;;;5.60;2.95;;;;;;;;;;5051012;28;20455;-69
2021/05/16 13:34:40;;;;;;;4.75;2.92;;;;;;;;;;5051521;28;20797;-69
2021/05/16 13:37:07;;;;;;;7.88;5.90;;;;;;;;;;5052019;28;20104;-69
2021/05/16 13:39:33;;;;;;;3.08;2.80;;;;;;;;;;5051460;28;20025;-69
2021/05/16 13:41:59;;;;;;;3.97;3.05;;;;;;;;;;5051579;28;20025;-69
2021/05/16 13:44:26;;;;;;;3.53;3.20;;;;;;;;;;5050233;28;20025;-69
2021/05/16 13:46:52;;;;;;;6.68;4.03;;;;;;;;;;5058776;28;20024;-69
2021/05/16 13:49:18;;;;;;;3.55;3.10;;;;;;;;;;5071108;28;20028;-69
2021/05/16 13:51:44;;;;;;;4.28;2.92;;;;;;;;;;5071891;28;20819;-69
2021/05/16 13:54:10;;;;;;;2.75;2.53;;;;;;;;;;5071333;28;20024;-69
2021/05/16 13:56:37;;;;;;;3.17;2.78;;;;;;;;;;5068650;28;20064;-69
2021/05/16 13:59:07;;;;;;;6.00;4.20;;;;;;;;;;5071377;28;20075;-69
2021/05/16 14:01:33;;;;;;;3.85;3.40;;;;;;;;;;5071478;28;20767;-69
2021/05/16 14:03:59;;;;;;;3.85;3.40;;;;;;;;;;5070971;28;20542;-69
2021/05/16 14:06:25;;;;;;;4.10;3.25;;;;;;;;;;5071239;28;20020;-68
2021/05/16 14:08:51;;;;;;;4.65;2.50;;;;;;;;;;5071254;28;20048;-69
2021/05/16 14:11:17;;;;;;;5.22;3.47;;;;;;;;;;5070810;28;20032;-69
2021/05/16 14:13:43;;;;;;;3.25;2.72;;;;;;;;;;5071038;28;20490;-69
2021/05/16 14:16:09;;;;;;;10.20;7.88;;;;;;;;;;5071360;28;20468;-68
2021/05/16 14:18:36;;;;;;;31.65;28.55;;;;;;;;;;5071186;28;20020;-69
2021/05/16 14:21:02;;;;;;;25.05;21.95;;;;;;;;;;5070608;28;20025;-69
2021/05/16 14:23:28;;;;;;;19.77;11.98;;;;;;;;;;5080928;28;20031;-68
2021/05/16 14:25:54;;;;;;;25.40;19.13;;;;;;;;;;5091327;28;20016;-68
2021/05/16 14:28:20;;;;;;;10.77;7.00;;;;;;;;;;5090996;28;20028;-68
2021/05/16 14:30:46;;;;;;;6.18;4.50;;;;;;;;;;5090932;28;20027;-69
2021/05/16 14:33:19;;;;;;;9.70;5.55;;;;;;;;;;5091351;28;20478;-69
2021/05/16 14:35:45;;;;;;;17.55;10.38;;;;;;;;;;5090599;28;20031;-69
2021/05/16 14:38:11;;;;;;;22.08;14.32;;;;;;;;;;5091250;28;20103;-68
2021/05/16 14:40:37;;;;;;;10.05;6.22;;;;;;;;;;5091321;28;20086;-68